OKBO2: North Canadian River at Britton Rd at OKC, OK

                                SHEF ID:       OKBO2     North Canadian River at Britton
STATION TYPE:

STAGE RIV-FLOW WTR-TEMP DIS-OXY CONDUCT BAT-LOAD
ft cfs F mg/l umho/cm volt
Ccp-Rev Ccp-Rev Ccp-Rev Ccp-Rev Ccp-Rev Ccp-Rev
(America/Chicago)
04/28 00:00 4.86 68 77.95 6.65 889 11.97
04/28 01:00 4.86 68 76.01 6.17 892 11.95
04/28 02:00 4.87 70 75.02 6.05 891 11.94
04/28 03:00 4.87 70 73.42 5.82 896 11.94
04/28 04:00 4.88 71 71.83 5.84 898 11.92
04/28 05:00 4.88 71 70.97 5.74 900 11.90
04/28 06:00 4.89 73 70.05 5.72 901 11.89
04/28 07:00 4.88 71 69.28 5.73 904 11.87
04/28 08:00 4.88 71 68.67 5.82 909 11.88
04/28 09:00 4.87 70 68.47 6.07 911 12.17
04/28 10:00 4.87 70 68.18 6.53 910 12.63
04/28 11:00 4.86 68 68.13 7.17 904 12.84
04/28 12:00 4.83 64 68.52 7.85 900 12.98
04/28 13:00 4.80 60 69.15 9.00 895 13.09
04/28 14:00 4.83 64 69.96 9.91 895 12.96
04/28 15:00 4.82 63 71.64 10.72 894 13.05
04/28 16:00 4.84 66 72.75 11.58 890 12.92
04/28 17:00 4.83 64 73.11 12.14 889 12.88
04/28 18:00 4.84 66 73.09 12.48 889 12.85
04/28 19:00 4.89 73 73.02 12.42 889 12.72
04/28 20:00 4.90 74 72.46 12.02 890 12.61
04/28 21:00 4.90 74 71.60 11.01 891 12.39
04/28 22:00 4.89 73 70.72 9.85 893 12.21
04/28 23:00 4.87 70 69.55 9.00 896 12.09
Data processed at Wed 29Apr2026 04:25 GMT

NOTICE: If you are parsing this page

Please convert to using our Data API. Starting early 2026 we will be migrating to: https://water.usace.army.mil with modern pages rendered in JavaScript. When this migration completes you will no longer be able to scrape this page! CWMSDataAPI (CDA)

Timeseries IDs (TSIDs)

TSIDs used from left to right in the data table
OKC3.Stage.Inst.1Hour.0.Ccp-Rev
OKC3.Flow.Inst.1Hour.0.Ccp-Rev
OKC3.Temp-Water.Inst.1Hour.0.Ccp-Rev
OKC3.Conc-DO.Inst.1Hour.0.Ccp-Rev
OKC3.Cond-Water.Inst.1Hour.0.Ccp-Rev
OKC3.Volt-Battery Load.Inst.1Hour.0.Ccp-Rev

                            

All information presented herein is the property of the government of the United States of America and may be revised or deleted at any time without prior notice. Dissemination of this information without the expressed written consent of the Public Affairs Office, Tulsa District U.S. Army Corps of Engineers is strictly prohibited. These data are gathered electronically and, as presented, have NOT undergone any form of quality control. These data are NOT guaranteed to be valid or correct.